Aviation Digital Data Service (ADDS)

Output produced by METARs form (0732 UTC 21 September 2018)
found at http://aviationweather.gov/metar/data/
 
KLFK 210543Z 2106/2206 15004KT P6SM SCT150 SCT250 
     FM211100 13003KT P6SM SCT015 SCT150 SCT250 
     TEMPO 2111/2115 BKN015 
     FM211600 15006KT P6SM BKN035 BKN150 BKN250 
     FM211800 16006KT P6SM VCTS SCT040CB BKN150 BKN250 
     FM220000 14005KT P6SM VCTS SCT045CB BKN150 BKN250